createdAt,value
2019-01-28T00:01:42.053Z,94484.66
2019-01-28T00:04:13.554Z,94483.61
2019-01-28T00:06:44.042Z,94494.56
2019-01-28T00:09:14.349Z,94501.36
2019-01-28T00:11:45.876Z,94504.51
2019-01-28T00:14:15.755Z,93103.41
2019-01-28T00:16:49.090Z,94507.63
2019-01-28T00:19:18.371Z,94508.93
2019-01-28T00:21:52.074Z,94509.73
2019-01-28T00:24:22.269Z,94513.64
2019-01-28T00:26:58.118Z,94525.13
2019-01-28T00:29:27.891Z,94529.80
2019-01-28T00:31:56.982Z,94530.63
2019-01-28T00:34:26.158Z,94209.34
2019-01-28T00:36:56.485Z,94529.28
2019-01-28T00:39:25.587Z,94541.05
2019-01-28T00:41:57.140Z,94542.58
2019-01-28T00:44:26.265Z,94541.55
2019-01-28T00:46:55.331Z,94551.47
2019-01-28T00:49:24.761Z,94548.32
2019-01-28T00:51:53.845Z,94555.67
2019-01-28T00:54:22.942Z,94558.30
2019-01-28T00:56:54.595Z,94555.62
2019-01-28T00:59:23.678Z,94552.75
2019-01-28T01:01:54.254Z,94554.61
2019-01-28T01:04:25.755Z,94552.23
2019-01-28T01:06:54.847Z,94554.13
2019-01-28T01:09:23.932Z,94555.42
2019-01-28T01:11:53.087Z,94566.94
2019-01-28T01:14:22.123Z,94561.95
2019-01-28T01:16:51.317Z,94558.84
2019-01-28T01:19:21.841Z,94555.16
2019-01-28T01:22:00.195Z,94555.69
2019-01-28T01:24:29.274Z,94555.69
2019-01-28T01:26:59.665Z,94548.63
2019-01-28T01:29:45.277Z,94553.06
2019-01-28T01:32:14.439Z,94551.27
2019-01-28T01:34:43.517Z,94550.95
2019-01-28T01:37:12.991Z,94549.61
2019-01-28T01:39:44.601Z,94548.84
2019-01-28T01:42:13.711Z,94537.06
2019-01-28T01:44:43.000Z,94531.02
2019-01-28T01:47:18.012Z,94540.70
2019-01-28T01:49:48.725Z,94531.31
2019-01-28T01:52:18.058Z,94541.53
2019-01-28T01:54:47.137Z,94591.94
2019-01-28T01:57:17.989Z,94533.47
2019-01-28T01:59:47.097Z,94528.22
2019-01-28T02:02:16.210Z,94522.48
2019-01-28T02:04:45.280Z,94519.08
2019-01-28T02:07:15.546Z,94527.69
2019-01-28T02:09:50.229Z,94525.88
2019-01-28T02:12:19.354Z,94520.89
2019-01-28T02:14:48.708Z,94513.58
2019-01-28T02:17:21.485Z,94505.20
2019-01-28T02:19:55.327Z,94509.64
2019-01-28T02:22:27.404Z,94499.97
2019-01-28T02:25:01.187Z,94501.58
2019-01-28T02:27:35.701Z,94491.08
2019-01-28T02:30:06.046Z,94495.75
2019-01-28T02:32:35.361Z,94496.83
2019-01-28T02:35:06.405Z,94483.50
2019-01-28T02:37:37.258Z,94482.95
2019-01-28T02:40:12.588Z,94492.16
2019-01-28T02:42:43.533Z,94487.92
2019-01-28T02:45:15.641Z,94487.73
2019-01-28T02:47:52.287Z,94485.09
2019-01-28T02:50:21.455Z,94480.94
2019-01-28T02:52:52.295Z,94481.22
2019-01-28T02:55:21.605Z,94481.97
2019-01-28T02:57:52.409Z,94491.30
2019-01-28T03:00:28.210Z,94487.35
2019-01-28T03:03:02.728Z,94488.66
2019-01-28T03:05:31.818Z,94488.25
2019-01-28T03:08:00.999Z,94491.08
2019-01-28T03:10:30.130Z,94488.00
2019-01-28T03:13:03.346Z,94492.94
2019-01-28T03:15:32.526Z,94483.03
2019-01-28T03:18:04.126Z,94489.48
2019-01-28T03:20:33.198Z,94480.10
2019-01-28T03:23:02.353Z,94484.09
2019-01-28T03:25:31.494Z,94480.67
2019-01-28T03:28:01.936Z,94483.58
2019-01-28T03:30:31.329Z,94483.61
2019-01-28T03:33:00.405Z,94480.94
2019-01-28T03:35:29.518Z,94479.43
2019-01-28T03:37:58.620Z,94482.04
2019-01-28T03:40:27.727Z,94483.61
2019-01-28T03:42:56.797Z,94474.46
2019-01-28T03:45:26.141Z,94479.96
2019-01-28T03:48:01.280Z,94479.16
2019-01-28T03:50:32.123Z,94467.66
2019-01-28T03:53:05.087Z,94497.69
2019-01-28T03:55:34.243Z,94460.63
2019-01-28T03:58:06.550Z,94463.48
2019-01-28T04:00:35.707Z,94458.78
2019-01-28T04:03:05.858Z,94459.55
2019-01-28T04:05:35.011Z,94454.58
2019-01-28T04:08:04.372Z,94486.73
2019-01-28T04:10:33.435Z,94455.66
2019-01-28T04:13:08.556Z,94457.44
2019-01-28T04:15:33.499Z,94456.34
2019-01-28T04:18:06.048Z,94455.03
2019-01-28T04:20:38.937Z,94462.34
2019-01-28T04:23:10.405Z,94462.61
2019-01-28T04:25:39.892Z,94462.91
2019-01-28T04:28:09.824Z,94462.92
2019-01-28T04:30:38.903Z,94470.19
2019-01-28T04:33:10.825Z,94470.22
2019-01-28T04:35:39.951Z,94474.91
2019-01-28T04:38:09.113Z,94478.32
2019-01-28T04:40:38.200Z,94481.75
2019-01-28T04:43:07.379Z,94541.77
2019-01-28T04:45:36.506Z,94488.48
2019-01-28T04:48:05.992Z,94482.19
2019-01-28T04:50:39.498Z,94486.11
2019-01-28T04:53:08.570Z,94484.84
2019-01-28T04:55:37.714Z,94480.94
2019-01-28T04:58:06.883Z,94486.38
2019-01-28T05:00:37.584Z,94485.14
2019-01-28T05:03:09.715Z,94491.63
2019-01-28T05:05:38.836Z,94488.51
2019-01-28T05:08:08.469Z,94485.06
2019-01-28T05:10:40.571Z,94482.75
2019-01-28T05:13:21.904Z,94481.22
2019-01-28T05:15:51.022Z,94485.88
2019-01-28T05:18:21.810Z,94493.23
2019-01-28T05:20:51.141Z,94490.28
2019-01-28T05:23:20.289Z,94493.98
2019-01-28T05:25:54.484Z,94493.00
2019-01-28T05:28:24.675Z,94490.63
2019-01-28T05:30:54.542Z,94493.20
2019-01-28T05:33:23.702Z,94492.73
2019-01-28T05:35:54.330Z,94491.67
2019-01-28T05:38:23.821Z,94487.24
2019-01-28T05:40:53.221Z,94488.04
2019-01-28T05:43:27.061Z,94485.41
2019-01-28T05:46:01.696Z,94480.20
2019-01-28T05:48:32.536Z,94483.56
2019-01-28T05:51:03.206Z,94483.33
2019-01-28T05:53:32.326Z,94480.66
2019-01-28T05:56:09.746Z,94485.59
2019-01-28T05:58:40.474Z,94488.41
2019-01-28T06:01:10.028Z,94485.06
2019-01-28T06:03:39.171Z,94476.73
2019-01-28T06:06:08.266Z,94481.73
2019-01-28T06:08:38.634Z,94484.11
2019-01-28T06:11:07.941Z,94481.75
2019-01-28T06:13:39.504Z,94486.72
2019-01-28T06:16:13.201Z,94490.09
2019-01-28T06:18:46.232Z,94494.29
2019-01-28T06:21:15.825Z,94497.16
2019-01-28T06:23:46.124Z,94489.08
2019-01-28T06:26:17.939Z,94484.32
2019-01-28T06:28:47.835Z,94489.80
2019-01-28T06:31:19.043Z,94487.91
2019-01-28T06:33:53.309Z,94489.02
2019-01-28T06:36:22.416Z,94496.14
2019-01-28T06:38:54.457Z,94489.34
2019-01-28T06:41:23.801Z,94495.37
2019-01-28T06:43:56.164Z,94491.14
2019-01-28T06:46:25.270Z,94492.13
2019-01-28T06:48:54.585Z,94489.32
2019-01-28T06:51:24.225Z,94497.66
2019-01-28T06:53:56.465Z,94501.52
2019-01-28T06:56:26.965Z,94497.37
2019-01-28T06:58:58.590Z,94498.91
2019-01-28T07:01:39.547Z,94503.66
2019-01-28T07:04:12.815Z,94498.66
2019-01-28T07:06:44.110Z,94508.59
2019-01-28T07:09:14.751Z,94504.16
2019-01-28T07:11:45.306Z,94503.89
2019-01-28T07:14:14.382Z,94509.89
2019-01-28T07:16:48.956Z,94513.84
2019-01-28T07:19:18.075Z,94200.87
2019-01-28T07:21:47.175Z,94508.81
2019-01-28T07:24:18.459Z,94510.19
2019-01-28T07:26:52.675Z,94543.98
2019-01-28T07:29:22.198Z,94511.69
2019-01-28T07:31:51.363Z,94515.88
2019-01-28T07:34:22.060Z,94514.30
2019-01-28T07:36:52.389Z,94224.84
2019-01-28T07:39:26.836Z,94515.70
2019-01-28T07:41:56.732Z,94511.21
2019-01-28T07:44:27.710Z,94510.66
2019-01-28T07:46:56.869Z,94517.76
2019-01-28T07:49:40.146Z,94518.41
2019-01-28T07:52:00.599Z,94514.33
2019-01-28T07:54:29.761Z,94515.36
2019-01-28T07:57:01.860Z,94256.83
2019-01-28T07:59:32.962Z,94516.70
2019-01-28T08:02:08.477Z,94518.23
2019-01-28T08:04:38.968Z,94517.38
2019-01-28T08:07:08.266Z,94519.28
2019-01-28T08:09:40.047Z,94510.64
2019-01-28T08:12:12.066Z,94513.78
2019-01-28T08:14:41.276Z,94516.36
2019-01-28T08:17:17.617Z,94518.66
2019-01-28T08:19:46.710Z,94518.41
2019-01-28T08:22:17.434Z,94527.48
2019-01-28T08:24:54.426Z,94519.73
2019-01-28T08:27:26.895Z,94519.17
2019-01-28T08:29:57.293Z,94523.34
2019-01-28T08:32:26.665Z,94520.78
2019-01-28T08:34:58.904Z,94515.86
2019-01-28T08:37:29.345Z,94522.80
2019-01-28T08:39:59.548Z,94519.22
2019-01-28T08:42:31.364Z,94522.16
2019-01-28T08:45:02.097Z,94517.88
2019-01-28T08:47:41.506Z,94516.92
2019-01-28T08:50:12.950Z,94515.34
2019-01-28T08:52:48.996Z,94513.05
2019-01-28T08:55:19.991Z,94508.28
2019-01-28T08:57:53.062Z,94520.90
2019-01-28T09:00:25.585Z,94519.05
2019-01-28T09:02:56.561Z,94517.70
2019-01-28T09:05:28.548Z,94511.98
2019-01-28T09:08:04.285Z,94517.51
2019-01-28T09:10:34.719Z,94518.80
2019-01-28T09:13:09.022Z,94520.06
2019-01-28T09:15:38.550Z,94522.44
2019-01-28T09:18:09.587Z,94521.94
2019-01-28T09:20:41.410Z,94585.91
2019-01-28T09:23:11.897Z,94525.02
2019-01-28T09:25:42.051Z,94522.73
2019-01-28T09:28:22.210Z,94524.30
2019-01-28T09:30:51.812Z,94528.77
2019-01-28T09:33:27.054Z,94526.71
2019-01-28T09:35:58.633Z,94534.53
2019-01-28T09:38:28.601Z,94534.02
2019-01-28T09:40:57.977Z,94536.04
2019-01-28T09:43:29.701Z,94533.69
2019-01-28T09:46:02.890Z,94538.72
2019-01-28T09:48:35.012Z,94533.71
2019-01-28T09:51:07.747Z,94534.77
2019-01-28T09:53:43.051Z,94539.17
2019-01-28T09:56:12.858Z,94541.55
2019-01-28T09:59:04.070Z,94537.61
2019-01-28T10:01:34.773Z,94540.67
2019-01-28T10:04:05.642Z,94551.98
2019-01-28T10:06:36.612Z,94550.69
2019-01-28T10:09:11.610Z,94554.36
2019-01-28T10:11:41.780Z,94550.88
2019-01-28T10:14:11.000Z,94552.93
2019-01-28T10:16:59.982Z,94556.05
2019-01-28T10:19:16.649Z,94551.19
2019-01-28T10:21:47.111Z,94546.98
2019-01-28T10:24:17.862Z,94549.79
2019-01-28T10:26:48.723Z,94544.11
2019-01-28T10:29:18.236Z,94545.41
2019-01-28T10:31:50.953Z,94263.93
2019-01-28T10:34:20.127Z,94548.23
2019-01-28T10:36:51.299Z,94553.95
2019-01-28T10:39:22.681Z,94549.05
2019-01-28T10:41:54.704Z,94553.69
2019-01-28T10:44:28.540Z,94551.92
2019-01-28T10:46:59.410Z,94552.47
2019-01-28T10:49:30.198Z,94554.51
2019-01-28T10:52:00.007Z,94549.94
2019-01-28T10:54:31.484Z,94551.02
2019-01-28T10:57:02.874Z,94549.80
2019-01-28T10:59:34.952Z,94552.89
2019-01-28T11:02:08.279Z,94553.55
2019-01-28T11:04:37.858Z,94553.02
2019-01-28T11:07:07.075Z,94553.78
2019-01-28T11:09:40.200Z,94547.91
2019-01-28T11:12:10.658Z,94546.66
2019-01-28T11:14:47.692Z,94539.36
2019-01-28T11:17:29.830Z,94543.81
2019-01-28T11:20:01.475Z,94554.41
2019-01-28T11:22:30.611Z,94546.47
2019-01-28T11:25:01.732Z,94539.62
2019-01-28T11:27:32.434Z,94542.00
2019-01-28T11:30:02.116Z,94542.73
2019-01-28T11:32:31.839Z,94537.55
2019-01-28T11:35:01.184Z,94540.67
2019-01-28T11:37:33.537Z,94540.20
2019-01-28T11:40:02.975Z,94537.30
2019-01-28T11:42:32.129Z,94534.17
2019-01-28T11:45:07.974Z,94530.45
2019-01-28T11:47:37.037Z,94536.96
2019-01-28T11:50:06.752Z,94548.72
2019-01-28T11:52:47.036Z,94546.48
2019-01-28T11:55:21.160Z,94548.05
2019-01-28T11:57:50.538Z,94547.19
2019-01-28T12:00:28.481Z,94554.72
2019-01-28T12:02:57.587Z,94544.83
2019-01-28T12:05:26.715Z,94550.13
2019-01-28T12:08:02.271Z,94544.07
2019-01-28T12:10:37.288Z,94539.88
2019-01-28T12:13:11.653Z,94546.95
2019-01-28T12:15:43.734Z,94545.94
2019-01-28T12:18:13.358Z,94548.27
2019-01-28T12:20:53.188Z,94553.28
2019-01-28T12:23:18.397Z,94556.31
2019-01-28T12:25:51.043Z,94558.00
2019-01-28T12:28:21.873Z,94561.88
2019-01-28T12:30:56.101Z,94561.10
2019-01-28T12:33:25.394Z,94566.51
2019-01-28T12:35:55.634Z,94569.23
2019-01-28T12:38:24.747Z,94569.70
2019-01-28T12:40:56.304Z,94568.72
2019-01-28T12:43:25.422Z,94573.61
2019-01-28T12:45:54.538Z,94572.64
2019-01-28T12:48:23.688Z,94576.81
2019-01-28T12:50:56.512Z,94569.75
2019-01-28T12:53:25.844Z,94571.80
2019-01-28T12:56:02.690Z,94576.84
2019-01-28T12:58:33.734Z,94577.59
2019-01-28T13:01:03.690Z,94300.19
2019-01-28T13:03:38.822Z,94578.13
2019-01-28T13:06:13.927Z,94576.30
2019-01-28T13:08:43.505Z,94578.01
2019-01-28T13:11:13.261Z,94582.22
2019-01-28T13:13:42.464Z,94586.84
2019-01-28T13:16:12.589Z,94587.52
2019-01-28T13:18:43.525Z,94593.44
2019-01-28T13:21:12.858Z,94591.33
2019-01-28T13:23:45.493Z,94591.90
2019-01-28T13:26:14.695Z,94596.37
2019-01-28T13:28:43.808Z,94599.69
2019-01-28T13:31:12.916Z,94598.09
2019-01-28T13:33:43.986Z,94603.09
2019-01-28T13:36:13.164Z,94608.50
2019-01-28T13:38:44.783Z,94635.50
2019-01-28T13:41:14.402Z,94613.31
2019-01-28T13:43:48.979Z,94612.92
2019-01-28T13:46:18.153Z,94612.91
2019-01-28T13:48:47.244Z,94611.39
2019-01-28T13:51:17.516Z,94617.45
2019-01-28T13:53:46.647Z,94618.02
2019-01-28T13:56:18.724Z,94621.07
2019-01-28T13:58:54.304Z,94627.87
2019-01-28T14:01:23.664Z,94628.73
2019-01-28T14:03:56.446Z,94633.39
2019-01-28T14:06:25.830Z,94637.48
2019-01-28T14:08:57.992Z,94635.47
2019-01-28T14:11:28.827Z,94644.47
2019-01-28T14:13:59.891Z,94647.60
2019-01-28T14:16:29.094Z,94650.73
2019-01-28T14:19:01.678Z,94640.28
2019-01-28T14:21:30.856Z,94640.23
2019-01-28T14:24:01.442Z,94652.28
2019-01-28T14:26:31.494Z,94659.34
2019-01-28T14:29:02.365Z,94655.21
2019-01-28T14:31:31.485Z,94657.84
2019-01-28T14:34:00.943Z,94653.95
2019-01-28T14:36:36.164Z,94658.65
2019-01-28T14:39:13.675Z,94661.70
2019-01-28T14:41:51.267Z,94669.62
2019-01-28T14:44:25.409Z,94349.06
2019-01-28T14:46:57.705Z,94677.42
2019-01-28T14:49:32.389Z,94701.16
2019-01-28T14:52:06.354Z,94678.08
2019-01-28T14:54:38.740Z,94681.38
2019-01-28T14:57:11.092Z,94678.38
2019-01-28T14:59:42.057Z,94689.80
2019-01-28T15:02:14.949Z,94693.53
2019-01-28T15:04:43.938Z,94697.36
2019-01-28T15:07:14.007Z,94700.31
2019-01-28T15:09:43.472Z,94706.02
2019-01-28T15:12:12.582Z,94703.16
2019-01-28T15:14:44.570Z,94708.50
2019-01-28T15:17:13.947Z,94717.55
2019-01-28T15:19:50.463Z,94710.98
2019-01-28T15:22:17.274Z,94715.53
2019-01-28T15:24:52.384Z,94721.33
2019-01-28T15:27:25.102Z,94697.75
2019-01-28T15:30:00.470Z,94739.00
2019-01-28T15:32:29.639Z,94734.31
2019-01-28T15:34:58.693Z,94743.41
2019-01-28T15:37:28.150Z,94735.67
2019-01-28T15:39:58.901Z,94748.79
2019-01-28T15:42:29.163Z,94750.28
2019-01-28T15:44:59.749Z,94754.62
2019-01-28T15:47:33.800Z,94760.75
2019-01-28T15:50:10.369Z,94767.98
2019-01-28T15:52:33.857Z,94505.30
2019-01-28T15:55:06.751Z,94777.22
2019-01-28T15:57:34.154Z,94782.91
2019-01-28T16:00:03.287Z,94788.65
2019-01-28T16:02:37.240Z,94787.90
2019-01-28T16:05:13.371Z,94791.94
2019-01-28T16:07:43.469Z,94790.94
2019-01-28T16:10:15.412Z,94796.40
2019-01-28T16:12:44.610Z,94802.58
2019-01-28T16:15:28.556Z,94803.13
2019-01-28T16:18:02.075Z,94842.38
2019-01-28T16:20:38.673Z,94819.73
2019-01-28T16:23:09.166Z,94820.56
2019-01-28T16:25:38.664Z,94819.94
2019-01-28T16:28:13.371Z,94831.79
2019-01-28T16:30:45.764Z,94832.50
2019-01-28T16:33:15.415Z,94843.72
2019-01-28T16:35:44.623Z,94876.08
2019-01-28T16:38:18.613Z,94837.56
2019-01-28T16:40:48.003Z,94858.99
2019-01-28T16:43:21.109Z,94872.22
2019-01-28T16:46:02.268Z,94870.14
2019-01-28T16:48:34.377Z,94878.63
2019-01-28T16:51:03.855Z,94881.09
2019-01-28T16:53:34.407Z,94885.61
2019-01-28T16:56:11.875Z,94877.05
2019-01-28T16:58:48.529Z,94897.16
2019-01-28T17:01:17.844Z,94892.82
2019-01-28T17:03:48.883Z,94900.39
2019-01-28T17:06:19.909Z,94910.73
2019-01-28T17:08:49.398Z,94907.99
2019-01-28T17:11:19.035Z,94918.38
2019-01-28T17:13:50.021Z,94928.41
2019-01-28T17:16:19.728Z,94924.55
2019-01-28T17:18:54.248Z,94921.48
2019-01-28T17:21:23.649Z,94936.29
2019-01-28T17:23:54.569Z,94933.34
2019-01-28T17:26:25.062Z,94938.56
2019-01-28T17:28:54.673Z,94946.94
2019-01-28T17:31:23.979Z,94931.45
2019-01-28T17:33:53.518Z,94951.81
2019-01-28T17:36:38.709Z,94948.97
2019-01-28T17:39:08.881Z,94957.65
2019-01-28T17:41:40.767Z,94966.86
2019-01-28T17:44:09.940Z,94966.09
2019-01-28T17:46:41.914Z,94973.57
2019-01-28T17:49:11.208Z,94977.61
2019-01-28T17:51:41.685Z,94982.38
2019-01-28T17:54:12.310Z,94989.52
2019-01-28T17:56:45.162Z,94983.84
2019-01-28T17:59:16.984Z,95000.14
2019-01-28T18:01:49.372Z,94999.23
2019-01-28T18:04:19.188Z,95001.72
2019-01-28T18:06:54.430Z,95008.58
2019-01-28T18:09:24.394Z,95014.08
2019-01-28T18:11:53.548Z,95014.92
2019-01-28T18:14:22.769Z,95019.66
2019-01-28T18:16:52.962Z,95023.64
2019-01-28T18:19:23.240Z,95025.07
2019-01-28T18:21:54.689Z,95033.86
2019-01-28T18:24:23.840Z,95036.19
2019-01-28T18:26:54.362Z,95036.12
2019-01-28T18:29:25.975Z,95039.35
2019-01-28T18:31:55.291Z,95033.11
2019-01-28T18:34:29.006Z,95042.95
2019-01-28T18:36:59.663Z,95044.22
2019-01-28T18:39:31.293Z,93490.84
2019-01-28T18:42:01.869Z,95047.92
2019-01-28T18:44:33.658Z,95052.52
2019-01-28T18:47:03.853Z,95053.48
2019-01-28T18:49:38.141Z,95050.34
2019-01-28T18:52:07.291Z,95061.52
2019-01-28T18:54:39.318Z,95064.25
2019-01-28T18:57:08.701Z,95077.77
2019-01-28T18:59:37.802Z,95070.86
2019-01-28T19:02:11.284Z,95085.47
2019-01-28T19:04:42.284Z,95086.70
2019-01-28T19:07:33.398Z,95094.55
2019-01-28T19:10:16.323Z,95103.36
2019-01-28T19:13:07.737Z,95093.80
2019-01-28T19:16:05.419Z,95110.07
2019-01-28T19:18:53.993Z,95118.11
2019-01-28T19:21:30.292Z,95117.75
2019-01-28T19:23:59.863Z,95124.50
2019-01-28T19:26:29.142Z,95135.53
2019-01-28T19:29:02.953Z,95134.12
2019-01-28T19:31:35.330Z,95137.35
2019-01-28T19:34:05.945Z,95132.80
2019-01-28T19:36:40.979Z,95149.28
2019-01-28T19:39:10.903Z,95154.48
2019-01-28T19:41:40.104Z,95157.50
2019-01-28T19:44:12.701Z,95161.64
2019-01-28T19:46:41.845Z,95165.16
2019-01-28T19:49:13.116Z,95161.16
2019-01-28T19:51:41.946Z,95175.96
2019-01-28T19:54:11.105Z,95187.95
2019-01-28T19:56:40.342Z,95185.68
2019-01-28T19:59:10.215Z,95193.86
2019-01-28T20:01:41.039Z,95200.38
2019-01-28T20:04:16.158Z,95202.68
2019-01-28T20:06:45.301Z,95204.41
2019-01-28T20:09:14.561Z,95207.04
2019-01-28T20:11:43.713Z,95207.41
2019-01-28T20:14:12.847Z,95224.27
2019-01-28T20:16:42.052Z,95216.30
2019-01-28T20:19:14.003Z,95214.95
2019-01-28T20:21:43.308Z,95211.78
2019-01-28T20:24:14.775Z,95221.98
2019-01-28T20:27:04.590Z,95234.20
2019-01-28T20:29:36.502Z,95223.24
2019-01-28T20:32:08.988Z,95241.09
2019-01-28T20:34:43.295Z,95241.03
2019-01-28T20:37:09.171Z,95242.02
2019-01-28T20:39:38.339Z,95245.08
2019-01-28T20:42:07.441Z,95250.92
2019-01-28T20:44:37.776Z,95255.91
2019-01-28T20:47:09.690Z,95251.13
2019-01-28T20:49:42.453Z,95267.15
2019-01-28T20:52:13.616Z,95268.26
2019-01-28T20:54:43.647Z,95269.55
2019-01-28T20:57:12.786Z,95284.37
2019-01-28T20:59:43.044Z,95284.41
2019-01-28T21:02:16.785Z,95277.92
2019-01-28T21:04:45.852Z,95280.42
2019-01-28T21:07:16.127Z,95284.20
2019-01-28T21:09:46.303Z,95290.03
2019-01-28T21:12:17.342Z,95299.86
2019-01-28T21:14:48.074Z,95304.87
2019-01-28T21:17:17.239Z,95302.17
2019-01-28T21:19:46.338Z,95312.38
2019-01-28T21:22:17.233Z,95320.64
2019-01-28T21:24:46.329Z,95329.00
2019-01-28T21:27:16.796Z,95322.84
2019-01-28T21:29:50.511Z,95326.56
2019-01-28T21:32:19.670Z,95335.19
2019-01-28T21:34:50.087Z,95333.29
2019-01-28T21:37:27.993Z,95338.33
2019-01-28T21:39:57.170Z,95338.14
2019-01-28T21:42:29.639Z,95344.63
2019-01-28T21:45:01.697Z,95356.84
2019-01-28T21:47:30.812Z,95361.03
2019-01-28T21:49:59.989Z,95364.03
2019-01-28T21:52:29.499Z,95367.14
2019-01-28T21:55:11.390Z,95364.20
2019-01-28T21:57:32.174Z,95373.17
2019-01-28T22:00:02.753Z,95371.30
2019-01-28T22:02:34.272Z,95374.95
2019-01-28T22:05:03.372Z,95372.09
2019-01-28T22:07:32.860Z,95378.32
2019-01-28T22:10:02.919Z,95378.88
2019-01-28T22:12:32.048Z,95379.20
2019-01-28T22:15:03.246Z,95373.74
2019-01-28T22:17:35.629Z,95411.40
2019-01-28T22:20:05.672Z,95381.25
2019-01-28T22:22:34.909Z,95413.83
2019-01-28T22:25:04.350Z,95383.20
2019-01-28T22:27:36.592Z,95381.00
2019-01-28T22:30:18.656Z,95394.45
2019-01-28T22:32:47.910Z,95389.61
2019-01-28T22:35:18.862Z,95397.06
2019-01-28T22:37:50.871Z,95386.86
2019-01-28T22:40:20.300Z,95397.90
2019-01-28T22:42:49.671Z,95407.67
2019-01-28T22:45:20.684Z,95413.11
2019-01-28T22:47:51.663Z,95412.21
2019-01-28T22:50:21.651Z,95423.52
2019-01-28T22:52:50.838Z,95424.33
2019-01-28T22:55:21.449Z,95425.20
2019-01-28T22:57:50.817Z,95433.14
2019-01-28T23:00:48.024Z,95427.70
2019-01-28T23:03:18.199Z,95435.55
2019-01-28T23:05:49.839Z,95431.27
2019-01-28T23:08:19.850Z,95431.11
2019-01-28T23:10:48.937Z,95438.93
2019-01-28T23:13:19.856Z,95435.23
2019-01-28T23:15:48.968Z,95438.64
2019-01-28T23:18:18.309Z,95438.05
2019-01-28T23:20:50.204Z,95433.47
2019-01-28T23:23:20.596Z,95438.45
2019-01-28T23:25:50.159Z,95436.41
2019-01-28T23:28:19.260Z,95441.21
2019-01-28T23:30:48.756Z,95446.43
2019-01-28T23:33:17.834Z,95436.05
2019-01-28T23:35:51.929Z,95445.98
2019-01-28T23:38:24.471Z,95439.42
2019-01-28T23:40:56.263Z,95433.33
2019-01-28T23:43:25.699Z,95438.11
2019-01-28T23:45:56.518Z,95442.55
2019-01-28T23:48:28.877Z,95450.33
2019-01-28T23:50:58.252Z,95448.59
2019-01-28T23:53:47.283Z,95451.80
2019-01-28T23:56:18.772Z,95452.98
2019-01-28T23:58:50.601Z,95454.05
